Las Vegas, Nevada
Traffic Map
Current Weather Conditions
Las Vegas, Nevada
Clear
Clear
64°
Feels Like: 64°
Wind Chill: 64° Ceiling: Unl
Heat Index: 64° Visibility: 10mi
Dew Point: 20° Wind: 10mph
Humidity: 18% Direction: 190° (S)
Pressure: 29.99in Gusts: 0mph
Raw Report DataKLAS 291056Z 19009KT 10SM CLR 18/M07 A2999 RMK AO2 SLP133 T01781067
Traffic Incident Summary
Active as of:
Severity:
Category:
InformationThere was an issue retrieving the traffic information for this location. Please try a different location or try again shortly.
Advertisements
Track Severe Weather on mobile